createdAt,value
2024-05-09T00:00:02.896Z,33.84
2024-05-09T00:01:02.517Z,33.52
2024-05-09T00:02:02.509Z,33.84
2024-05-09T00:03:02.489Z,34.00
2024-05-09T00:04:02.559Z,34.00
2024-05-09T00:05:02.565Z,34.00
2024-05-09T00:06:02.560Z,33.35
2024-05-09T00:07:02.422Z,34.00
2024-05-09T00:08:02.528Z,34.00
2024-05-09T00:09:02.390Z,33.84
2024-05-09T00:10:03.198Z,34.16
2024-05-09T00:11:02.661Z,34.48
2024-05-09T00:12:02.572Z,34.16
2024-05-09T00:13:02.356Z,34.16
2024-05-09T00:14:02.363Z,33.84
2024-05-09T00:15:02.349Z,34.32
2024-05-09T00:16:02.326Z,34.16
2024-05-09T00:17:02.343Z,34.00
2024-05-09T00:18:02.657Z,34.00
2024-05-09T00:19:02.356Z,34.48
2024-05-09T00:20:02.622Z,33.84
2024-05-09T00:21:02.481Z,34.32
2024-05-09T00:22:02.257Z,34.16
2024-05-09T00:23:02.307Z,34.00
2024-05-09T00:24:02.231Z,34.32
2024-05-09T00:25:02.245Z,34.16
2024-05-09T00:26:02.280Z,37.38
2024-05-09T00:27:02.205Z,34.00
2024-05-09T00:28:02.196Z,34.48
2024-05-09T00:29:02.296Z,34.32
2024-05-09T00:30:04.125Z,34.16
2024-05-09T00:31:02.153Z,34.32
2024-05-09T00:32:02.287Z,34.16
2024-05-09T00:33:02.294Z,34.16
2024-05-09T00:34:02.275Z,34.32
2024-05-09T00:35:02.197Z,34.48
2024-05-09T00:36:02.122Z,34.32
2024-05-09T00:37:02.093Z,34.48
2024-05-09T00:38:02.439Z,34.32
2024-05-09T00:39:02.093Z,34.32
2024-05-09T00:40:02.116Z,34.32
2024-05-09T00:41:02.155Z,34.00
2024-05-09T00:42:02.050Z,34.64
2024-05-09T00:43:02.027Z,34.32
2024-05-09T00:44:02.097Z,34.48
2024-05-09T00:45:02.037Z,34.48
2024-05-09T00:46:02.138Z,34.32
2024-05-09T00:47:02.022Z,34.80
2024-05-09T00:48:02.212Z,34.32
2024-05-09T00:49:02.068Z,34.48
2024-05-09T00:50:02.076Z,34.32
2024-05-09T00:51:01.993Z,34.48
2024-05-09T00:52:01.951Z,34.32
2024-05-09T00:53:02.039Z,34.32
2024-05-09T00:54:01.929Z,34.16
2024-05-09T00:55:01.913Z,34.32
2024-05-09T00:56:01.945Z,34.48
2024-05-09T00:57:01.900Z,34.48
2024-05-09T00:58:01.886Z,34.80
2024-05-09T00:59:01.920Z,34.64
2024-05-09T01:00:01.871Z,34.64
2024-05-09T01:01:01.940Z,34.48
2024-05-09T01:02:01.924Z,34.00
2024-05-09T01:03:02.094Z,34.32
2024-05-09T01:04:01.984Z,35.29
2024-05-09T01:05:01.909Z,34.32
2024-05-09T01:06:01.842Z,34.16
2024-05-09T01:07:01.782Z,34.48
2024-05-09T01:08:01.881Z,34.64
2024-05-09T01:09:01.754Z,34.48
2024-05-09T01:10:01.777Z,34.48
2024-05-09T01:11:01.873Z,34.80
2024-05-09T01:12:01.794Z,34.97
2024-05-09T01:13:01.722Z,34.64
2024-05-09T01:14:01.824Z,34.64
2024-05-09T01:15:01.740Z,35.29
2024-05-09T01:16:01.707Z,35.77
2024-05-09T01:17:01.760Z,34.64
2024-05-09T01:18:02.163Z,34.16
2024-05-09T01:19:01.791Z,34.64
2024-05-09T01:20:01.756Z,34.48
2024-05-09T01:21:01.752Z,34.64
2024-05-09T01:22:01.626Z,34.97
2024-05-09T01:23:01.637Z,34.64
2024-05-09T01:24:01.633Z,34.32
2024-05-09T01:25:01.592Z,34.48
2024-05-09T01:26:01.649Z,34.80
2024-05-09T01:27:01.570Z,34.48
2024-05-09T01:28:01.584Z,34.48
2024-05-09T01:29:01.596Z,34.16
2024-05-09T01:30:01.559Z,34.64
2024-05-09T01:31:01.521Z,34.48
2024-05-09T01:32:01.657Z,34.80
2024-05-09T01:33:02.039Z,34.48
2024-05-09T01:34:01.565Z,34.64
2024-05-09T01:35:01.555Z,34.64
2024-05-09T01:36:01.477Z,34.32
2024-05-09T01:37:01.457Z,34.64
2024-05-09T01:38:01.524Z,34.32
2024-05-09T01:39:01.473Z,34.48
2024-05-09T01:40:01.435Z,34.48
2024-05-09T01:41:01.471Z,34.32
2024-05-09T01:42:01.436Z,34.48
2024-05-09T01:43:01.415Z,34.64
2024-05-09T01:44:01.437Z,34.80
2024-05-09T01:45:01.381Z,34.64
2024-05-09T01:46:01.375Z,34.00
2024-05-09T01:47:01.483Z,34.32
2024-05-09T01:48:02.218Z,34.16
2024-05-09T01:49:01.454Z,34.80
2024-05-09T01:50:01.526Z,34.80
2024-05-09T01:51:01.503Z,34.32
2024-05-09T01:52:01.328Z,34.80
2024-05-09T01:53:01.367Z,34.80
2024-05-09T01:54:01.317Z,33.84
2024-05-09T01:55:04.670Z,34.64
2024-05-09T01:56:01.312Z,34.97
2024-05-09T01:57:01.265Z,34.32
2024-05-09T01:58:01.326Z,34.32
2024-05-09T01:59:01.302Z,34.48
2024-05-09T02:00:01.243Z,34.48
2024-05-09T02:01:01.291Z,34.64
2024-05-09T02:02:01.482Z,34.64
2024-05-09T02:03:01.578Z,34.48
2024-05-09T02:04:01.473Z,34.48
2024-05-09T02:05:01.264Z,34.48
2024-05-09T02:06:01.346Z,33.19
2024-05-09T02:07:01.138Z,34.48
2024-05-09T02:08:01.292Z,34.48
2024-05-09T02:09:01.130Z,34.32
2024-05-09T02:10:01.123Z,34.64
2024-05-09T02:11:01.303Z,34.16
2024-05-09T02:12:01.326Z,34.48
2024-05-09T02:13:01.197Z,34.00
2024-05-09T02:14:01.159Z,34.48
2024-05-09T02:15:01.080Z,34.32
2024-05-09T02:16:01.070Z,34.32
2024-05-09T02:17:01.091Z,34.64
2024-05-09T02:18:01.255Z,34.64
2024-05-09T02:19:01.094Z,34.48
2024-05-09T02:20:01.122Z,34.32
2024-05-09T02:21:01.139Z,34.64
2024-05-09T02:22:00.995Z,34.48
2024-05-09T02:23:01.008Z,34.32
2024-05-09T02:24:01.016Z,34.80
2024-05-09T02:25:00.999Z,35.13
2024-05-09T02:26:00.966Z,34.80
2024-05-09T02:27:00.942Z,34.48
2024-05-09T02:28:00.964Z,34.80
2024-05-09T02:29:00.966Z,34.00
2024-05-09T02:30:00.911Z,34.64
2024-05-09T02:31:00.895Z,35.29
2024-05-09T02:32:00.983Z,34.64
2024-05-09T02:33:01.120Z,35.13
2024-05-09T02:34:01.166Z,34.64
2024-05-09T02:35:00.927Z,35.29
2024-05-09T02:36:00.854Z,38.99
2024-05-09T02:37:00.838Z,34.80
2024-05-09T02:38:01.085Z,36.42
2024-05-09T02:39:00.832Z,34.48
2024-05-09T02:40:00.805Z,34.64
2024-05-09T02:41:00.847Z,34.64
2024-05-09T02:42:00.790Z,35.45
2024-05-09T02:43:00.787Z,35.93
2024-05-09T02:44:00.828Z,36.58
2024-05-09T02:45:00.748Z,36.09
2024-05-09T02:46:00.754Z,38.99
2024-05-09T02:47:00.768Z,37.38
2024-05-09T02:48:01.496Z,35.13
2024-05-09T02:49:00.776Z,38.83
2024-05-09T02:50:00.733Z,40.44
2024-05-09T02:51:00.819Z,38.99
2024-05-09T02:52:00.697Z,36.74
2024-05-09T02:53:00.754Z,35.77
2024-05-09T02:54:00.672Z,36.74
2024-05-09T02:55:00.637Z,35.77
2024-05-09T02:56:00.758Z,34.80
2024-05-09T02:57:00.640Z,35.93
2024-05-09T02:58:00.617Z,35.61
2024-05-09T02:59:00.687Z,35.45
2024-05-09T03:00:00.688Z,36.90
2024-05-09T03:01:00.543Z,39.32
2024-05-09T03:02:00.753Z,35.45
2024-05-09T03:03:00.703Z,50.11
2024-05-09T03:04:00.623Z,36.74
2024-05-09T03:05:00.547Z,37.54
2024-05-09T03:06:00.492Z,37.22
2024-05-09T03:07:00.553Z,38.19
2024-05-09T03:08:00.519Z,38.67
2024-05-09T03:09:00.454Z,38.67
2024-05-09T03:10:00.435Z,36.25
2024-05-09T03:11:00.588Z,35.61
2024-05-09T03:12:00.499Z,36.90
2024-05-09T03:13:00.414Z,38.99
2024-05-09T03:14:00.421Z,41.41
2024-05-09T03:15:00.427Z,36.74
2024-05-09T03:16:00.414Z,41.89
2024-05-09T03:17:00.392Z,36.74
2024-05-09T03:18:00.619Z,52.85
2024-05-09T03:19:00.438Z,47.53
2024-05-09T03:20:00.399Z,38.51
2024-05-09T03:21:00.383Z,41.73
2024-05-09T03:22:00.312Z,35.45
2024-05-09T03:23:00.334Z,38.67
2024-05-09T03:24:00.306Z,47.86
2024-05-09T03:25:00.321Z,37.87
2024-05-09T03:26:00.323Z,43.34
2024-05-09T03:27:00.269Z,37.06
2024-05-09T03:28:00.276Z,35.93
2024-05-09T03:29:00.281Z,38.99
2024-05-09T03:30:00.282Z,35.77
2024-05-09T03:31:00.235Z,35.13
2024-05-09T03:32:00.304Z,45.76
2024-05-09T03:33:00.476Z,45.28
2024-05-09T03:34:00.384Z,35.29
2024-05-09T03:35:00.280Z,35.77
2024-05-09T03:36:00.169Z,37.54
2024-05-09T03:37:00.173Z,35.61
2024-05-09T03:38:00.233Z,35.61
2024-05-09T03:39:00.158Z,35.13
2024-05-09T03:40:00.207Z,38.19
2024-05-09T03:41:00.123Z,35.13
2024-05-09T03:42:00.109Z,34.97
2024-05-09T03:43:00.110Z,35.29
2024-05-09T03:44:00.140Z,34.97
2024-05-09T03:45:00.129Z,34.64
2024-05-09T03:46:00.076Z,35.45
2024-05-09T03:47:00.092Z,35.77
2024-05-09T03:48:00.199Z,35.61
2024-05-09T03:49:00.087Z,35.45
2024-05-09T03:50:00.049Z,35.93
2024-05-09T03:51:00.131Z,34.97
2024-05-09T03:52:00.002Z,36.42
2024-05-09T03:53:00.288Z,35.61
2024-05-09T03:53:59.981Z,35.13
2024-05-09T03:54:59.975Z,35.93
2024-05-09T03:56:00.038Z,35.61
2024-05-09T03:56:59.986Z,35.77
2024-05-09T03:58:00.060Z,37.06
2024-05-09T03:58:59.981Z,35.13
2024-05-09T03:59:59.915Z,35.45
2024-05-09T04:00:59.958Z,35.61
2024-05-09T04:02:00.039Z,35.13
2024-05-09T04:03:00.073Z,35.13
2024-05-09T04:03:59.913Z,36.09
2024-05-09T04:04:59.900Z,35.61
2024-05-09T04:05:59.854Z,35.61
2024-05-09T04:06:59.863Z,34.00
2024-05-09T04:07:59.903Z,35.29
2024-05-09T04:08:59.834Z,35.13
2024-05-09T04:09:59.813Z,35.13
2024-05-09T04:10:59.888Z,35.13
2024-05-09T04:11:59.878Z,35.45
2024-05-09T04:12:59.792Z,35.13
2024-05-09T04:13:59.798Z,35.29
2024-05-09T04:14:59.762Z,35.45
2024-05-09T04:15:59.781Z,35.13
2024-05-09T04:16:59.796Z,35.45
2024-05-09T04:18:00.337Z,35.29
2024-05-09T04:18:59.766Z,35.93
2024-05-09T04:19:59.719Z,35.29
2024-05-09T04:20:59.789Z,35.45
2024-05-09T04:21:59.688Z,35.29
2024-05-09T04:22:59.731Z,35.77
2024-05-09T04:23:59.677Z,38.35
2024-05-09T04:24:59.671Z,35.29
2024-05-09T04:25:59.669Z,35.29
2024-05-09T04:26:59.695Z,34.80
2024-05-09T04:27:59.624Z,35.13
2024-05-09T04:28:59.683Z,34.97
2024-05-09T04:29:59.622Z,35.29
2024-05-09T04:30:59.609Z,35.61
2024-05-09T04:31:59.710Z,35.61
2024-05-09T04:32:59.713Z,34.97
2024-05-09T04:33:59.697Z,35.13
2024-05-09T04:34:59.607Z,35.29
2024-05-09T04:35:59.595Z,35.45
2024-05-09T04:36:59.538Z,34.97
2024-05-09T04:37:59.632Z,35.13
2024-05-09T04:38:59.895Z,35.29
2024-05-09T04:39:59.618Z,35.61
2024-05-09T04:40:59.565Z,34.80
2024-05-09T04:41:59.476Z,35.45
2024-05-09T04:42:59.472Z,35.13
2024-05-09T04:43:59.491Z,34.97
2024-05-09T04:44:59.451Z,34.64
2024-05-09T04:45:59.438Z,35.61
2024-05-09T04:46:59.468Z,37.54
2024-05-09T04:47:59.892Z,35.77
2024-05-09T04:48:59.475Z,34.97
2024-05-09T04:49:59.405Z,34.64
2024-05-09T04:50:59.505Z,34.80
2024-05-09T04:51:59.377Z,35.29
2024-05-09T04:52:59.451Z,34.64
2024-05-09T04:53:59.365Z,35.13
2024-05-09T04:54:59.348Z,34.64
2024-05-09T04:55:59.373Z,35.13
2024-05-09T04:56:59.337Z,34.97
2024-05-09T04:57:59.347Z,34.80
2024-05-09T04:58:59.376Z,43.18
2024-05-09T04:59:59.294Z,35.93
2024-05-09T05:00:59.324Z,34.80
2024-05-09T05:01:59.319Z,34.97
2024-05-09T05:02:59.693Z,35.13
2024-05-09T05:03:59.453Z,35.61
2024-05-09T05:04:59.361Z,35.45
2024-05-09T05:05:59.441Z,36.09
2024-05-09T05:07:02.094Z,35.77
2024-05-09T05:07:59.272Z,37.71
2024-05-09T05:08:59.203Z,35.29
2024-05-09T05:09:59.224Z,36.58
2024-05-09T05:10:59.269Z,35.77
2024-05-09T05:11:59.250Z,36.09
2024-05-09T05:12:59.164Z,35.29
2024-05-09T05:13:59.171Z,45.60
2024-05-09T05:14:59.155Z,45.60
2024-05-09T05:15:59.123Z,36.25
2024-05-09T05:16:59.202Z,35.77
2024-05-09T05:17:59.241Z,36.09
2024-05-09T05:18:59.177Z,35.77
2024-05-09T05:19:59.153Z,34.64
2024-05-09T05:20:59.273Z,39.96
2024-05-09T05:21:59.082Z,35.45
2024-05-09T05:22:59.121Z,37.54
2024-05-09T05:23:59.043Z,34.64
2024-05-09T05:24:59.040Z,35.61
2024-05-09T05:25:59.093Z,34.16
2024-05-09T05:26:59.023Z,35.29
2024-05-09T05:27:59.001Z,38.51
2024-05-09T05:28:59.014Z,35.93
2024-05-09T05:29:58.978Z,34.48
2024-05-09T05:30:58.987Z,41.09
2024-05-09T05:31:59.058Z,38.99
2024-05-09T05:32:59.004Z,35.77
2024-05-09T05:33:59.102Z,41.09
2024-05-09T05:34:58.967Z,36.90
2024-05-09T05:35:58.932Z,34.97
2024-05-09T05:36:58.933Z,35.61
2024-05-09T05:37:58.953Z,35.93
2024-05-09T05:38:58.916Z,34.97
2024-05-09T05:39:58.885Z,39.16
2024-05-09T05:40:58.924Z,35.61
2024-05-09T05:41:58.857Z,47.21
2024-05-09T05:42:58.848Z,34.32
2024-05-09T05:43:58.863Z,35.13
2024-05-09T05:44:58.844Z,35.93
2024-05-09T05:45:58.818Z,34.48
2024-05-09T05:46:58.835Z,34.32
2024-05-09T05:47:58.985Z,34.32
2024-05-09T05:48:58.961Z,34.32
2024-05-09T05:49:58.825Z,34.00
2024-05-09T05:51:01.135Z,34.32
2024-05-09T05:51:58.752Z,33.84
2024-05-09T05:52:58.764Z,34.00
2024-05-09T05:53:58.751Z,34.00
2024-05-09T05:54:58.752Z,34.64
2024-05-09T05:55:58.737Z,34.00
2024-05-09T05:56:58.724Z,33.84
2024-05-09T05:57:58.687Z,34.32
2024-05-09T05:58:58.729Z,34.00
2024-05-09T05:59:58.664Z,34.32
2024-05-09T06:00:58.739Z,37.87
2024-05-09T06:01:58.665Z,33.52
2024-05-09T06:02:58.783Z,35.61
2024-05-09T06:03:58.755Z,34.00
2024-05-09T06:04:58.705Z,31.90
2024-05-09T06:05:58.645Z,32.07
2024-05-09T06:06:58.597Z,35.13
2024-05-09T06:07:58.663Z,33.19
2024-05-09T06:08:58.601Z,31.74
2024-05-09T06:09:58.556Z,32.07
2024-05-09T06:10:58.658Z,31.90
2024-05-09T06:11:58.605Z,31.90
2024-05-09T06:12:58.547Z,32.23
2024-05-09T06:13:58.564Z,32.39
2024-05-09T06:14:58.511Z,32.87
2024-05-09T06:15:58.506Z,36.09
2024-05-09T06:16:58.560Z,31.58
2024-05-09T06:17:59.026Z,32.07
2024-05-09T06:18:58.542Z,31.26
2024-05-09T06:19:58.479Z,33.03
2024-05-09T06:20:58.471Z,30.62
2024-05-09T06:21:58.447Z,30.94
2024-05-09T06:22:58.457Z,32.71
2024-05-09T06:23:58.424Z,30.45
2024-05-09T06:24:58.406Z,30.45
2024-05-09T06:25:58.458Z,27.55
2024-05-09T06:26:58.600Z,26.59
2024-05-09T06:27:58.376Z,26.91
2024-05-09T06:28:58.416Z,26.91
2024-05-09T06:29:58.348Z,26.91
2024-05-09T06:30:58.360Z,28.84
2024-05-09T06:32:00.309Z,26.91
2024-05-09T06:32:58.474Z,26.91
2024-05-09T06:33:58.439Z,26.91
2024-05-09T06:34:58.357Z,26.91
2024-05-09T06:35:58.309Z,26.75
2024-05-09T06:36:58.291Z,26.75
2024-05-09T06:37:58.314Z,28.84
2024-05-09T06:38:58.286Z,26.59
2024-05-09T06:39:58.248Z,26.75
2024-05-09T06:40:58.340Z,26.75
2024-05-09T06:41:58.230Z,26.75
2024-05-09T06:42:58.225Z,26.75
2024-05-09T06:43:58.262Z,26.91
2024-05-09T06:44:58.243Z,26.75
2024-05-09T06:45:58.200Z,26.91
2024-05-09T06:46:59.726Z,26.75
2024-05-09T06:47:58.402Z,26.91
2024-05-09T06:48:58.391Z,26.91
2024-05-09T06:49:58.203Z,26.75
2024-05-09T06:50:58.151Z,26.75
2024-05-09T06:51:58.117Z,26.75
2024-05-09T06:52:58.182Z,26.75
2024-05-09T06:53:58.107Z,26.75
2024-05-09T06:54:58.117Z,26.75
2024-05-09T06:55:58.159Z,27.39
2024-05-09T06:56:58.072Z,26.59
2024-05-09T06:57:58.058Z,26.75
2024-05-09T06:58:58.117Z,26.91
2024-05-09T06:59:58.056Z,26.75
2024-05-09T07:00:58.115Z,26.59
2024-05-09T07:01:58.035Z,26.75
2024-05-09T07:02:59.698Z,26.91
2024-05-09T07:03:58.109Z,26.75
2024-05-09T07:04:58.058Z,26.59
2024-05-09T07:05:58.055Z,26.91
2024-05-09T07:06:57.969Z,26.75
2024-05-09T07:07:57.956Z,27.07
2024-05-09T07:08:57.957Z,26.75
2024-05-09T07:09:57.927Z,26.75
2024-05-09T07:10:58.027Z,26.91
2024-05-09T07:11:58.049Z,26.75
2024-05-09T07:12:57.913Z,26.75
2024-05-09T07:13:57.973Z,26.75
2024-05-09T07:14:57.881Z,26.59
2024-05-09T07:15:57.876Z,26.75
2024-05-09T07:16:58.013Z,26.75
2024-05-09T07:17:58.002Z,26.91
2024-05-09T07:18:58.010Z,26.59
2024-05-09T07:19:57.901Z,26.75
2024-05-09T07:20:57.978Z,26.75
2024-05-09T07:21:57.808Z,26.75
2024-05-09T07:22:57.820Z,26.10
2024-05-09T07:23:57.806Z,26.91
2024-05-09T07:24:57.769Z,26.59
2024-05-09T07:25:57.790Z,26.75
2024-05-09T07:26:57.784Z,26.59
2024-05-09T07:27:57.760Z,26.75
2024-05-09T07:28:57.730Z,26.75
2024-05-09T07:29:57.725Z,26.75
2024-05-09T07:30:57.704Z,26.75
2024-05-09T07:31:57.778Z,26.91
2024-05-09T07:32:57.957Z,26.75
2024-05-09T07:33:57.763Z,26.75
2024-05-09T07:34:57.689Z,26.75
2024-05-09T07:35:57.681Z,26.91
2024-05-09T07:36:57.657Z,26.91
2024-05-09T07:37:57.708Z,26.91
2024-05-09T07:38:57.629Z,26.91
2024-05-09T07:39:57.644Z,26.75
2024-05-09T07:40:57.707Z,26.75
2024-05-09T07:41:57.615Z,26.75
2024-05-09T07:42:57.589Z,26.59
2024-05-09T07:43:57.641Z,26.75
2024-05-09T07:45:11.233Z,26.75
2024-05-09T07:46:00.953Z,26.75
2024-05-09T07:49:44.288Z,26.91
2024-05-09T07:53:14.177Z,26.75
2024-05-09T07:53:46.064Z,26.59
2024-05-09T07:53:57.150Z,26.75
2024-05-09T07:54:52.984Z,26.59
2024-05-09T07:55:53.068Z,26.59
2024-05-09T07:56:53.148Z,26.59
2024-05-09T07:57:52.772Z,26.75
2024-05-09T07:58:52.924Z,26.75
2024-05-09T07:59:52.710Z,26.75
2024-05-09T08:00:52.885Z,26.59
2024-05-09T08:01:52.891Z,26.91
2024-05-09T08:02:52.789Z,26.91
2024-05-09T08:03:53.032Z,26.43
2024-05-09T08:04:52.731Z,26.59
2024-05-09T08:05:52.741Z,26.91
2024-05-09T08:06:52.775Z,26.91
2024-05-09T08:07:52.608Z,26.75
2024-05-09T08:08:52.654Z,26.59
2024-05-09T08:09:52.722Z,26.75
2024-05-09T08:10:52.705Z,28.20
2024-05-09T08:11:52.801Z,26.91
2024-05-09T08:12:52.662Z,26.75
2024-05-09T08:13:52.663Z,26.59
2024-05-09T08:14:52.566Z,26.75
2024-05-09T08:15:52.923Z,26.59
2024-05-09T08:16:52.616Z,26.75
2024-05-09T08:17:52.735Z,26.75
2024-05-09T08:18:52.686Z,26.75
2024-05-09T08:19:52.589Z,27.07
2024-05-09T08:20:52.522Z,27.39
2024-05-09T08:21:52.522Z,26.75
2024-05-09T08:22:52.526Z,26.75
2024-05-09T08:23:52.519Z,26.75
2024-05-09T08:24:52.607Z,26.75
2024-05-09T08:25:52.443Z,26.75
2024-05-09T08:26:52.456Z,26.75
2024-05-09T08:27:52.595Z,26.91
2024-05-09T08:28:52.404Z,26.75
2024-05-09T08:29:52.450Z,26.91
2024-05-09T08:30:52.495Z,26.91
2024-05-09T08:31:52.400Z,26.75
2024-05-09T08:32:52.470Z,26.91
2024-05-09T08:33:52.599Z,26.75
2024-05-09T08:34:52.526Z,26.91
2024-05-09T08:35:52.323Z,26.75
2024-05-09T08:36:52.383Z,26.91
2024-05-09T08:37:52.390Z,25.78
2024-05-09T08:38:52.295Z,26.75
2024-05-09T08:39:52.373Z,26.59
2024-05-09T08:40:52.316Z,26.75
2024-05-09T08:41:52.278Z,26.75
2024-05-09T08:42:52.605Z,26.75
2024-05-09T08:43:52.252Z,26.91
2024-05-09T08:44:52.238Z,26.59
2024-05-09T08:45:52.953Z,26.91
2024-05-09T08:46:52.225Z,26.75
2024-05-09T08:47:52.347Z,26.75
2024-05-09T08:48:52.343Z,26.59
2024-05-09T08:49:52.259Z,26.75
2024-05-09T08:50:52.284Z,26.91
2024-05-09T08:51:52.205Z,26.91
2024-05-09T08:52:52.174Z,26.91
2024-05-09T08:53:52.142Z,26.59
2024-05-09T08:54:52.190Z,26.75
2024-05-09T08:55:52.142Z,26.75
2024-05-09T08:56:52.144Z,26.91
2024-05-09T08:57:52.306Z,26.91
2024-05-09T08:58:52.095Z,26.91
2024-05-09T08:59:52.088Z,26.91
2024-05-09T09:00:52.217Z,26.91
2024-05-09T09:01:52.134Z,26.75
2024-05-09T09:02:52.078Z,26.75
2024-05-09T09:03:52.187Z,26.75
2024-05-09T09:04:52.152Z,26.75
2024-05-09T09:05:52.129Z,26.75
2024-05-09T09:06:53.248Z,26.75
2024-05-09T09:07:52.003Z,26.75
2024-05-09T09:08:51.989Z,26.75
2024-05-09T09:09:52.018Z,26.75
2024-05-09T09:10:52.023Z,26.75
2024-05-09T09:11:51.995Z,26.75
2024-05-09T09:12:52.043Z,26.75
2024-05-09T09:13:51.937Z,26.75
2024-05-09T09:14:51.937Z,26.91
2024-05-09T09:15:52.037Z,26.75
2024-05-09T09:16:51.912Z,26.59
2024-05-09T09:17:51.974Z,26.26
2024-05-09T09:18:52.130Z,26.75
2024-05-09T09:19:51.966Z,26.75
2024-05-09T09:20:51.852Z,26.75
2024-05-09T09:21:51.984Z,26.75
2024-05-09T09:22:51.853Z,26.10
2024-05-09T09:23:51.848Z,26.75
2024-05-09T09:24:51.940Z,26.75
2024-05-09T09:25:51.823Z,26.59
2024-05-09T09:26:51.807Z,26.59
2024-05-09T09:27:51.821Z,26.75
2024-05-09T09:28:51.813Z,26.75
2024-05-09T09:29:51.774Z,28.84
2024-05-09T09:30:51.849Z,26.75
2024-05-09T09:31:51.739Z,26.59
2024-05-09T09:32:51.852Z,26.91
2024-05-09T09:33:51.955Z,26.75
2024-05-09T09:34:51.864Z,26.75
2024-05-09T09:35:51.714Z,26.91
2024-05-09T09:36:51.708Z,26.91
2024-05-09T09:37:51.702Z,26.91
2024-05-09T09:38:51.697Z,26.75
2024-05-09T09:39:51.653Z,26.59
2024-05-09T09:40:51.687Z,27.71
2024-05-09T09:41:51.644Z,28.36
2024-05-09T09:42:51.810Z,26.59
2024-05-09T09:43:51.635Z,26.75
2024-05-09T09:45:01.834Z,26.75
2024-05-09T09:45:52.186Z,26.91
2024-05-09T09:46:51.662Z,26.75
2024-05-09T09:47:51.762Z,26.91
2024-05-09T09:48:51.748Z,26.75
2024-05-09T09:49:51.629Z,26.75
2024-05-09T09:50:51.565Z,26.91
2024-05-09T09:51:51.673Z,26.91
2024-05-09T09:52:51.527Z,26.91
2024-05-09T09:53:51.511Z,26.75
2024-05-09T09:54:51.522Z,26.59
2024-05-09T09:55:51.507Z,26.75
2024-05-09T09:56:51.521Z,26.75
2024-05-09T09:57:51.533Z,28.20
2024-05-09T09:58:51.463Z,26.75
2024-05-09T09:59:51.438Z,26.91
2024-05-09T10:00:51.601Z,26.75
2024-05-09T10:01:51.557Z,27.88
2024-05-09T10:02:51.454Z,28.68
2024-05-09T10:03:51.664Z,27.88
2024-05-09T10:04:51.481Z,27.88
2024-05-09T10:05:51.461Z,30.62
2024-05-09T10:06:51.494Z,29.65
2024-05-09T10:07:51.374Z,29.00
2024-05-09T10:08:51.356Z,29.00
2024-05-09T10:09:51.426Z,28.04
2024-05-09T10:10:51.473Z,28.52
2024-05-09T10:11:52.438Z,27.88
2024-05-09T10:12:51.352Z,28.20
2024-05-09T10:13:51.308Z,28.36
2024-05-09T10:14:51.303Z,27.88
2024-05-09T10:15:51.643Z,28.52
2024-05-09T10:16:51.289Z,28.36
2024-05-09T10:17:51.381Z,29.17
2024-05-09T10:18:51.435Z,28.36
2024-05-09T10:19:51.417Z,28.04
2024-05-09T10:20:51.266Z,28.52
2024-05-09T10:21:51.301Z,27.23
2024-05-09T10:22:51.229Z,45.60
2024-05-09T10:23:51.221Z,28.68
2024-05-09T10:24:51.295Z,29.65
2024-05-09T10:25:51.178Z,28.84
2024-05-09T10:26:51.180Z,28.84
2024-05-09T10:27:51.198Z,28.20
2024-05-09T10:28:51.234Z,29.00
2024-05-09T10:29:51.167Z,29.65
2024-05-09T10:30:51.169Z,28.52
2024-05-09T10:31:51.191Z,35.77
2024-05-09T10:32:51.257Z,28.36
2024-05-09T10:33:52.321Z,29.17
2024-05-09T10:34:51.098Z,28.52
2024-05-09T10:35:51.065Z,28.68
2024-05-09T10:36:51.127Z,28.68
2024-05-09T10:37:51.076Z,29.49
2024-05-09T10:38:51.065Z,28.36
2024-05-09T10:39:51.076Z,28.20
2024-05-09T10:40:51.035Z,30.62
2024-05-09T10:41:51.006Z,28.36
2024-05-09T10:42:51.076Z,30.13
2024-05-09T10:43:51.077Z,29.33
2024-05-09T10:44:50.977Z,40.77
2024-05-09T10:45:51.036Z,30.45
2024-05-09T10:46:50.976Z,29.00
2024-05-09T10:47:51.484Z,30.62
2024-05-09T10:48:51.046Z,28.84
2024-05-09T10:49:51.146Z,29.49
2024-05-09T10:50:50.915Z,28.52
2024-05-09T10:51:51.004Z,28.04
2024-05-09T10:52:51.226Z,28.04
2024-05-09T10:53:50.870Z,27.88
2024-05-09T10:54:50.922Z,29.17
2024-05-09T10:55:50.858Z,28.36
2024-05-09T10:56:50.875Z,28.52
2024-05-09T10:57:50.873Z,31.74
2024-05-09T10:58:50.841Z,28.68
2024-05-09T10:59:50.820Z,28.68
2024-05-09T11:00:50.899Z,29.00
2024-05-09T11:01:51.021Z,28.20
2024-05-09T11:02:50.835Z,29.00
2024-05-09T11:03:51.091Z,29.17
2024-05-09T11:04:50.851Z,33.35
2024-05-09T11:05:50.908Z,30.13
2024-05-09T11:06:50.789Z,29.33
2024-05-09T11:07:50.733Z,29.81
2024-05-09T11:08:50.740Z,30.45
2024-05-09T11:09:50.762Z,29.17
2024-05-09T11:10:51.058Z,29.49
2024-05-09T11:11:51.129Z,30.62
2024-05-09T11:12:50.732Z,29.81
2024-05-09T11:13:50.691Z,29.00
2024-05-09T11:14:50.677Z,34.48
2024-05-09T11:15:50.699Z,31.58
2024-05-09T11:16:50.698Z,29.81
2024-05-09T11:17:50.794Z,29.97
2024-05-09T11:18:50.819Z,39.48
2024-05-09T11:19:50.654Z,29.33
2024-05-09T11:20:50.707Z,35.45
2024-05-09T11:21:50.634Z,40.44
2024-05-09T11:22:50.599Z,28.68
2024-05-09T11:23:50.568Z,30.29
2024-05-09T11:24:50.633Z,28.04
2024-05-09T11:25:50.585Z,32.55
2024-05-09T11:26:50.572Z,28.04
2024-05-09T11:27:50.579Z,28.68
2024-05-09T11:28:50.877Z,28.52
2024-05-09T11:29:50.528Z,28.68
2024-05-09T11:30:50.588Z,30.13
2024-05-09T11:31:50.559Z,28.04
2024-05-09T11:32:50.610Z,28.20
2024-05-09T11:33:50.599Z,29.17
2024-05-09T11:34:52.648Z,28.68
2024-05-09T11:35:50.461Z,28.20
2024-05-09T11:36:50.476Z,28.68
2024-05-09T11:37:50.424Z,28.36
2024-05-09T11:38:50.439Z,28.20
2024-05-09T11:39:50.797Z,29.00
2024-05-09T11:40:50.449Z,29.49
2024-05-09T11:41:50.390Z,30.13
2024-05-09T11:42:53.013Z,31.10
2024-05-09T11:43:50.379Z,29.97
2024-05-09T11:44:50.365Z,30.45
2024-05-09T11:45:50.402Z,30.13
2024-05-09T11:46:50.329Z,30.13
2024-05-09T11:47:50.399Z,30.45
2024-05-09T11:48:50.498Z,30.62
2024-05-09T11:49:50.326Z,30.45
2024-05-09T11:50:50.292Z,30.13
2024-05-09T11:51:50.299Z,30.29
2024-05-09T11:52:50.280Z,30.62
2024-05-09T11:53:50.283Z,30.13
2024-05-09T11:54:50.285Z,31.10
2024-05-09T11:55:50.243Z,31.26
2024-05-09T11:56:50.225Z,29.81
2024-05-09T11:57:50.285Z,29.33
2024-05-09T11:58:50.212Z,29.00
2024-05-09T11:59:50.202Z,29.00
2024-05-09T12:00:50.414Z,28.52
2024-05-09T12:01:50.392Z,29.17
2024-05-09T12:02:50.222Z,28.84
2024-05-09T12:03:50.384Z,28.84
2024-05-09T12:04:50.236Z,28.84
2024-05-09T12:05:50.247Z,28.84
2024-05-09T12:06:50.187Z,34.32
2024-05-09T12:07:50.135Z,31.42
2024-05-09T12:08:50.097Z,28.84
2024-05-09T12:09:50.138Z,29.97
2024-05-09T12:10:50.343Z,29.49
2024-05-09T12:11:50.192Z,29.97
2024-05-09T12:12:50.152Z,30.62
2024-05-09T12:13:50.052Z,30.94
2024-05-09T12:14:50.046Z,29.17
2024-05-09T12:15:50.076Z,28.68
2024-05-09T12:16:50.086Z,29.49
2024-05-09T12:17:50.847Z,28.36
2024-05-09T12:18:50.152Z,27.39
2024-05-09T12:19:49.986Z,28.04
2024-05-09T12:20:50.008Z,28.04
2024-05-09T12:21:50.028Z,27.88
2024-05-09T12:22:49.954Z,33.68
2024-05-09T12:23:49.957Z,28.84
2024-05-09T12:24:49.967Z,29.97
2024-05-09T12:25:49.951Z,31.10
2024-05-09T12:26:49.909Z,39.16
2024-05-09T12:27:49.974Z,30.45
2024-05-09T12:28:49.894Z,29.97
2024-05-09T12:29:49.892Z,27.88
2024-05-09T12:30:49.938Z,28.68
2024-05-09T12:31:49.933Z,27.71
2024-05-09T12:32:50.085Z,28.84
2024-05-09T12:33:49.988Z,28.20
2024-05-09T12:34:49.864Z,30.45
2024-05-09T12:35:51.116Z,29.17
2024-05-09T12:36:49.898Z,28.36
2024-05-09T12:37:49.800Z,29.97
2024-05-09T12:38:49.790Z,29.97
2024-05-09T12:39:49.852Z,30.78
2024-05-09T12:40:49.798Z,30.29
2024-05-09T12:41:49.755Z,30.29
2024-05-09T12:42:49.847Z,29.97
2024-05-09T12:43:49.735Z,32.07
2024-05-09T12:44:49.750Z,30.13
2024-05-09T12:45:49.774Z,29.49
2024-05-09T12:46:49.701Z,29.49
2024-05-09T12:47:49.955Z,29.17
2024-05-09T12:48:49.923Z,28.84
2024-05-09T12:49:49.738Z,29.00
2024-05-09T12:50:49.812Z,29.97
2024-05-09T12:51:49.827Z,35.13
2024-05-09T12:52:49.650Z,29.33
2024-05-09T12:53:49.664Z,30.13
2024-05-09T12:54:49.676Z,32.87
2024-05-09T12:55:56.664Z,31.26